createdAt,value
2022-10-18T00:00:54.120Z,12.46
2022-10-18T00:03:56.994Z,12.44
2022-10-18T00:07:00.157Z,12.32
2022-10-18T00:10:04.583Z,12.37
2022-10-18T00:13:07.042Z,12.22
2022-10-18T00:16:15.445Z,12.29
2022-10-18T00:19:18.083Z,12.24
2022-10-18T00:22:23.655Z,12.30
2022-10-18T00:25:26.135Z,12.29
2022-10-18T00:28:29.040Z,12.29
2022-10-18T00:31:33.923Z,12.28
2022-10-18T00:34:38.399Z,12.24
2022-10-18T00:37:40.984Z,12.21
2022-10-18T00:40:43.994Z,12.19
2022-10-18T00:43:52.761Z,12.20
2022-10-18T00:47:03.375Z,12.22
2022-10-18T00:50:07.333Z,12.20
2022-10-18T00:53:14.704Z,12.18
2022-10-18T00:56:17.559Z,12.19
2022-10-18T00:59:20.916Z,12.18
2022-10-18T01:02:24.157Z,12.16
2022-10-18T01:05:27.184Z,12.14
2022-10-18T01:08:32.966Z,12.10
2022-10-18T01:11:54.049Z,12.14
2022-10-18T01:15:27.144Z,12.12
2022-10-18T01:18:43.728Z,12.09
2022-10-18T01:21:55.458Z,12.08
2022-10-18T01:25:08.221Z,12.08
2022-10-18T01:28:30.710Z,12.01
2022-10-18T01:31:38.598Z,11.93
2022-10-18T01:34:42.689Z,11.93
2022-10-18T01:37:47.671Z,11.90
2022-10-18T01:40:50.837Z,11.87
2022-10-18T01:43:57.537Z,11.81
2022-10-18T01:47:00.128Z,11.84
2022-10-18T01:50:05.851Z,11.85
2022-10-18T01:53:22.262Z,11.83
2022-10-18T01:56:35.802Z,11.84
2022-10-18T01:59:44.117Z,11.82
2022-10-18T02:03:15.180Z,11.84
2022-10-18T02:06:27.277Z,11.82
2022-10-18T02:09:38.576Z,11.78
2022-10-18T02:12:43.666Z,11.76
2022-10-18T02:15:52.056Z,11.74
2022-10-18T02:18:59.648Z,11.74
2022-10-18T02:22:02.290Z,11.75
2022-10-18T02:25:09.904Z,11.73
2022-10-18T02:28:12.708Z,11.73
2022-10-18T02:31:20.430Z,11.73
2022-10-18T02:34:24.913Z,11.73
2022-10-18T02:37:35.308Z,11.56
2022-10-18T02:40:37.825Z,11.68
2022-10-18T02:43:40.631Z,11.68
2022-10-18T02:46:43.165Z,11.64
2022-10-18T02:49:45.974Z,11.62
2022-10-18T02:52:48.455Z,11.58
2022-10-18T02:55:51.195Z,11.54
2022-10-18T02:58:53.690Z,11.53
2022-10-18T03:01:59.058Z,11.51
2022-10-18T03:05:01.583Z,11.52
2022-10-18T03:08:04.753Z,11.48
2022-10-18T03:11:07.330Z,11.45
2022-10-18T03:14:10.164Z,11.44
2022-10-18T03:17:12.875Z,11.43
2022-10-18T03:20:15.912Z,11.41
2022-10-18T03:23:18.392Z,11.38
2022-10-18T03:26:21.688Z,11.36
2022-10-18T03:29:24.153Z,11.33
2022-10-18T03:32:26.896Z,11.26
2022-10-18T03:35:29.440Z,11.29
2022-10-18T03:38:32.761Z,11.26
2022-10-18T03:41:35.321Z,11.19
2022-10-18T03:44:38.046Z,11.15
2022-10-18T03:47:40.520Z,11.05
2022-10-18T03:50:43.830Z,11.05
2022-10-18T03:53:46.544Z,10.91
2022-10-18T03:56:49.263Z,11.00
2022-10-18T03:59:51.760Z,11.00
2022-10-18T04:02:55.974Z,10.96
2022-10-18T04:06:00.759Z,10.63
2022-10-18T04:09:06.525Z,10.93
2022-10-18T04:12:12.254Z,10.93
2022-10-18T04:15:14.749Z,10.93
2022-10-18T04:18:17.624Z,10.92
2022-10-18T04:21:20.343Z,10.92
2022-10-18T04:24:23.123Z,10.99
2022-10-18T04:27:25.743Z,11.02
2022-10-18T04:30:28.852Z,11.02
2022-10-18T04:33:31.498Z,10.92
2022-10-18T04:36:34.321Z,10.93
2022-10-18T04:39:36.763Z,10.96
2022-10-18T04:42:39.853Z,11.00
2022-10-18T04:45:45.545Z,11.00
2022-10-18T04:48:48.458Z,10.97
2022-10-18T04:51:51.071Z,11.02
2022-10-18T04:54:53.822Z,11.06
2022-10-18T04:57:56.240Z,11.08
2022-10-18T05:00:59.775Z,11.10
2022-10-18T05:04:02.479Z,11.11
2022-10-18T05:07:06.648Z,11.07
2022-10-18T05:10:09.750Z,11.03
2022-10-18T05:13:12.663Z,10.91
2022-10-18T05:16:16.081Z,10.84
2022-10-18T05:19:18.910Z,10.87
2022-10-18T05:22:21.421Z,10.90
2022-10-18T05:25:24.722Z,10.94
2022-10-18T05:28:39.613Z,11.69
2022-10-18T05:31:43.566Z,11.39
2022-10-18T05:34:46.142Z,11.21
2022-10-18T05:37:48.949Z,10.95
2022-10-18T05:40:53.149Z,10.83
2022-10-18T05:43:55.936Z,10.77
2022-10-18T05:46:58.373Z,10.73
2022-10-18T05:50:01.246Z,10.71
2022-10-18T05:53:12.581Z,10.69
2022-10-18T05:56:21.220Z,10.79
2022-10-18T05:59:23.882Z,10.82
2022-10-18T06:02:26.713Z,10.82
2022-10-18T06:05:29.528Z,10.84
2022-10-18T06:08:32.562Z,10.77
2022-10-18T06:11:36.463Z,10.77
2022-10-18T06:14:38.901Z,10.77
2022-10-18T06:17:41.646Z,10.82
2022-10-18T06:20:44.749Z,10.88
2022-10-18T06:23:56.594Z,10.95
2022-10-18T06:26:59.134Z,11.02
2022-10-18T06:30:02.215Z,11.11
2022-10-18T06:33:05.512Z,11.17
2022-10-18T06:36:11.806Z,11.28
2022-10-18T06:39:14.319Z,11.37
2022-10-18T06:42:19.136Z,11.53
2022-10-18T06:45:24.343Z,11.66
2022-10-18T06:48:27.074Z,11.80
2022-10-18T06:51:29.594Z,11.92
2022-10-18T06:54:32.323Z,12.06
2022-10-18T06:57:34.749Z,12.18
2022-10-18T07:00:37.591Z,12.36
2022-10-18T07:03:40.125Z,12.51
2022-10-18T07:06:42.896Z,12.70
2022-10-18T07:09:46.137Z,12.88
2022-10-18T07:12:48.961Z,13.04
2022-10-18T07:16:14.267Z,13.13
2022-10-18T07:19:20.339Z,13.40
2022-10-18T07:22:24.996Z,13.58
2022-10-18T07:25:31.436Z,13.73
2022-10-18T07:28:34.736Z,13.84
2022-10-18T07:31:41.048Z,13.93
2022-10-18T07:34:43.611Z,13.99
2022-10-18T07:37:46.376Z,14.05
2022-10-18T07:40:49.050Z,14.28
2022-10-18T07:43:52.982Z,14.54
2022-10-18T07:46:55.603Z,14.69
2022-10-18T07:50:02.419Z,14.77
2022-10-18T07:53:05.101Z,14.88
2022-10-18T07:56:16.720Z,14.80
2022-10-18T07:59:19.264Z,15.01
2022-10-18T08:02:23.474Z,15.18
2022-10-18T08:05:27.554Z,15.32
2022-10-18T08:08:30.485Z,15.40
2022-10-18T08:11:33.799Z,15.72
2022-10-18T08:14:36.284Z,15.74
2022-10-18T08:17:39.179Z,15.89
2022-10-18T08:20:45.738Z,16.07
2022-10-18T08:23:48.797Z,16.38
2022-10-18T08:26:51.250Z,16.51
2022-10-18T08:29:54.209Z,16.69
2022-10-18T08:32:56.667Z,16.84
2022-10-18T08:36:01.074Z,16.77
2022-10-18T08:39:03.518Z,17.38
2022-10-18T08:42:17.598Z,17.58
2022-10-18T08:45:37.338Z,17.56
2022-10-18T08:48:49.219Z,17.96
2022-10-18T08:51:52.311Z,18.28
2022-10-18T08:55:13.751Z,18.47
2022-10-18T08:58:20.961Z,18.72
2022-10-18T09:01:52.938Z,18.85
2022-10-18T09:05:46.611Z,19.09
2022-10-18T09:09:20.504Z,19.39
2022-10-18T09:12:40.178Z,19.77
2022-10-18T09:15:51.805Z,19.89
2022-10-18T09:19:03.251Z,20.13
2022-10-18T09:22:14.850Z,20.28
2022-10-18T09:25:19.017Z,20.48
2022-10-18T09:28:40.735Z,20.69
2022-10-18T09:31:56.861Z,20.86
2022-10-18T09:35:14.349Z,21.01
2022-10-18T09:38:20.723Z,21.32
2022-10-18T09:41:26.948Z,21.58
2022-10-18T09:44:36.237Z,21.85
2022-10-18T09:47:45.727Z,22.32
2022-10-18T09:50:55.278Z,22.81
2022-10-18T09:54:29.360Z,22.96
2022-10-18T09:57:41.547Z,23.11
2022-10-18T10:00:48.622Z,23.33
2022-10-18T10:03:51.841Z,23.43
2022-10-18T10:06:56.157Z,23.56
2022-10-18T10:10:25.489Z,24.13
2022-10-18T10:13:28.019Z,24.15
2022-10-18T10:16:30.702Z,24.61
2022-10-18T10:19:35.803Z,24.82
2022-10-18T10:22:40.234Z,24.71
2022-10-18T10:25:43.297Z,25.21
2022-10-18T10:28:49.971Z,25.13
2022-10-18T10:32:03.552Z,25.19
2022-10-18T10:35:52.676Z,25.37
2022-10-18T10:39:19.494Z,25.40
2022-10-18T10:42:22.357Z,25.53
2022-10-18T10:45:26.314Z,25.67
2022-10-18T10:48:33.569Z,25.70
2022-10-18T10:51:38.632Z,25.68
2022-10-18T10:54:46.486Z,26.34
2022-10-18T10:57:52.999Z,26.53
2022-10-18T11:00:57.528Z,26.54
2022-10-18T11:04:04.060Z,26.49
2022-10-18T11:07:30.325Z,26.65
2022-10-18T11:10:35.269Z,26.50
2022-10-18T11:14:01.588Z,26.99
2022-10-18T11:17:35.948Z,27.05
2022-10-18T11:20:48.126Z,27.43
2022-10-18T11:23:50.818Z,27.14
2022-10-18T11:27:08.778Z,27.13
2022-10-18T11:30:44.262Z,27.23
2022-10-18T11:34:10.289Z,26.99
2022-10-18T11:38:01.120Z,27.16
2022-10-18T11:41:22.522Z,27.03
2022-10-18T11:44:34.147Z,26.94
2022-10-18T11:47:45.025Z,26.26
2022-10-18T11:51:04.782Z,27.12
2022-10-18T11:54:20.281Z,26.90
2022-10-18T11:57:41.792Z,26.96
2022-10-18T12:00:57.357Z,27.50
2022-10-18T12:04:24.023Z,27.45
2022-10-18T12:07:35.057Z,27.73
2022-10-18T12:10:53.016Z,27.87
2022-10-18T12:14:10.831Z,27.74
2022-10-18T12:17:51.425Z,28.00
2022-10-18T12:20:56.659Z,27.24
2022-10-18T12:24:09.148Z,26.19
2022-10-18T12:27:13.922Z,25.96
2022-10-18T12:30:35.075Z,25.31
2022-10-18T12:33:45.245Z,25.38
2022-10-18T12:36:56.501Z,25.47
2022-10-18T12:40:11.402Z,25.27
2022-10-18T12:43:21.780Z,25.20
2022-10-18T12:46:24.378Z,25.06
2022-10-18T12:49:33.266Z,25.16
2022-10-18T12:52:37.153Z,25.10
2022-10-18T12:58:49.737Z,25.58
2022-10-18T13:01:55.418Z,25.61
2022-10-18T13:08:27.797Z,25.68
2022-10-18T13:11:33.359Z,25.66
2022-10-18T13:14:49.387Z,25.05
2022-10-18T13:18:16.219Z,24.63
2022-10-18T13:21:28.063Z,24.53
2022-10-18T13:25:13.963Z,24.20
2022-10-18T13:28:44.853Z,24.02
2022-10-18T13:31:55.261Z,23.64
2022-10-18T13:34:58.075Z,23.41
2022-10-18T13:38:00.578Z,23.37
2022-10-18T13:41:07.760Z,23.16
2022-10-18T13:44:22.524Z,23.06
2022-10-18T13:47:33.843Z,23.06
2022-10-18T13:50:38.281Z,22.77
2022-10-18T13:53:57.264Z,22.61
2022-10-18T13:57:15.495Z,22.47
2022-10-18T14:00:22.070Z,22.39
2022-10-18T14:07:02.381Z,22.04
2022-10-18T14:10:10.339Z,21.88
2022-10-18T14:13:21.859Z,21.83
2022-10-18T14:16:28.101Z,21.67
2022-10-18T14:19:41.150Z,21.59
2022-10-18T14:22:48.784Z,21.50
2022-10-18T14:25:51.356Z,21.29
2022-10-18T14:29:07.774Z,21.18
2022-10-18T14:32:18.640Z,21.15
2022-10-18T14:35:32.999Z,21.13
2022-10-18T14:38:37.935Z,21.04
2022-10-18T14:41:52.414Z,20.87
2022-10-18T14:44:56.439Z,20.69
2022-10-18T14:48:15.694Z,20.50
2022-10-18T14:51:18.997Z,20.30
2022-10-18T14:54:31.932Z,20.21
2022-10-18T14:57:36.631Z,20.19
2022-10-18T15:00:41.099Z,20.05
2022-10-18T15:03:45.584Z,19.95
2022-10-18T15:06:48.952Z,19.73
2022-10-18T15:09:51.606Z,19.66
2022-10-18T15:13:09.167Z,19.51
2022-10-18T15:16:17.583Z,19.32
2022-10-18T15:19:34.237Z,19.18
2022-10-18T15:22:36.997Z,19.02
2022-10-18T15:25:39.828Z,18.82
2022-10-18T15:28:52.832Z,18.49
2022-10-18T15:31:56.486Z,18.38
2022-10-18T15:35:13.550Z,18.12
2022-10-18T15:38:24.736Z,17.97
2022-10-18T15:41:38.487Z,17.76
2022-10-18T15:44:49.497Z,17.58
2022-10-18T15:48:02.879Z,17.35
2022-10-18T15:51:07.859Z,17.14
2022-10-18T15:54:17.926Z,16.97
2022-10-18T15:57:20.812Z,16.82
2022-10-18T16:00:25.316Z,16.67
2022-10-18T16:03:28.718Z,16.57
2022-10-18T16:06:32.368Z,16.44
2022-10-18T16:09:35.286Z,16.30
2022-10-18T16:12:37.810Z,16.15
2022-10-18T16:15:40.771Z,16.05
2022-10-18T16:18:43.279Z,15.99
2022-10-18T16:21:46.050Z,15.87
2022-10-18T16:24:48.458Z,15.79
2022-10-18T16:27:51.200Z,15.74
2022-10-18T16:30:59.521Z,15.63
2022-10-18T16:34:02.691Z,15.60
2022-10-18T16:37:05.138Z,15.50
2022-10-18T16:40:36.527Z,15.41
2022-10-18T16:43:45.508Z,15.33
2022-10-18T16:46:51.076Z,15.28
2022-10-18T16:49:56.431Z,15.26
2022-10-18T16:52:59.165Z,15.22
2022-10-18T16:56:02.815Z,15.17
2022-10-18T16:59:05.879Z,15.16
2022-10-18T17:02:09.296Z,15.12
2022-10-18T17:05:12.106Z,15.02
2022-10-18T17:08:21.918Z,14.93
2022-10-18T17:11:27.257Z,14.91
2022-10-18T17:14:29.812Z,14.76
2022-10-18T17:17:32.763Z,14.88
2022-10-18T17:20:36.556Z,14.84
2022-10-18T17:23:39.454Z,14.82
2022-10-18T17:26:41.937Z,14.80
2022-10-18T17:29:44.722Z,14.80
2022-10-18T17:32:47.215Z,14.71
2022-10-18T17:35:49.981Z,14.63
2022-10-18T17:38:55.752Z,14.56
2022-10-18T17:41:58.819Z,14.48
2022-10-18T17:45:01.314Z,14.43
2022-10-18T17:48:04.133Z,14.40
2022-10-18T17:51:12.550Z,14.41
2022-10-18T17:54:15.329Z,14.38
2022-10-18T17:57:18.180Z,14.31
2022-10-18T18:00:24.568Z,14.24
2022-10-18T18:03:27.482Z,14.20
2022-10-18T18:06:34.059Z,14.14
2022-10-18T18:09:36.865Z,14.11
2022-10-18T18:12:39.356Z,14.10
2022-10-18T18:15:42.114Z,14.02
2022-10-18T18:18:45.350Z,14.08
2022-10-18T18:21:48.539Z,14.23
2022-10-18T18:24:51.081Z,14.81
2022-10-18T18:27:54.419Z,14.57
2022-10-18T18:31:07.152Z,14.41
2022-10-18T18:34:10.513Z,14.37
2022-10-18T18:37:12.950Z,14.31
2022-10-18T18:40:16.950Z,14.26
2022-10-18T18:43:23.239Z,14.20
2022-10-18T18:46:28.083Z,14.08
2022-10-18T18:49:31.499Z,14.03
2022-10-18T18:52:34.696Z,13.96
2022-10-18T18:55:39.764Z,13.89
2022-10-18T18:58:44.178Z,13.78
2022-10-18T19:01:46.738Z,13.70
2022-10-18T19:04:50.756Z,13.66
2022-10-18T19:07:53.373Z,13.61
2022-10-18T19:10:57.678Z,13.60
2022-10-18T19:14:01.375Z,13.60
2022-10-18T19:17:07.141Z,13.60
2022-10-18T19:20:12.699Z,13.55
2022-10-18T19:23:15.794Z,13.58
2022-10-18T19:26:37.456Z,13.53
2022-10-18T19:29:43.878Z,13.51
2022-10-18T19:32:47.733Z,13.45
2022-10-18T19:35:50.901Z,13.48
2022-10-18T19:38:53.427Z,13.46
2022-10-18T19:41:58.554Z,13.35
2022-10-18T19:45:01.046Z,13.44
2022-10-18T19:48:04.118Z,13.37
2022-10-18T19:51:09.362Z,13.41
2022-10-18T19:54:13.446Z,13.34
2022-10-18T19:57:15.892Z,13.29
2022-10-18T20:00:19.681Z,13.30
2022-10-18T20:03:23.658Z,13.28
2022-10-18T20:06:26.524Z,13.35
2022-10-18T20:09:29.782Z,13.34
2022-10-18T20:12:32.652Z,13.21
2022-10-18T20:15:35.672Z,13.16
2022-10-18T20:18:38.713Z,13.27
2022-10-18T20:21:41.547Z,13.26
2022-10-18T20:24:44.193Z,13.12
2022-10-18T20:27:47.003Z,13.12
2022-10-18T20:31:03.461Z,13.10
2022-10-18T20:34:08.533Z,13.15
2022-10-18T20:37:11.035Z,13.04
2022-10-18T20:40:14.562Z,13.04
2022-10-18T20:43:17.086Z,12.97
2022-10-18T20:46:20.618Z,12.92
2022-10-18T20:49:23.266Z,12.87
2022-10-18T20:52:26.070Z,12.84
2022-10-18T20:55:29.099Z,12.88
2022-10-18T20:58:32.537Z,12.89
2022-10-18T21:01:36.070Z,12.84
2022-10-18T21:04:43.324Z,12.84
2022-10-18T21:07:45.906Z,12.76
2022-10-18T21:10:49.889Z,12.73
2022-10-18T21:13:53.941Z,12.71
2022-10-18T21:16:56.838Z,12.70
2022-10-18T21:20:01.001Z,12.66
2022-10-18T21:23:03.714Z,12.63
2022-10-18T21:26:06.807Z,12.68
2022-10-18T21:29:10.781Z,12.68
2022-10-18T21:32:13.406Z,12.61
2022-10-18T21:35:16.235Z,12.60
2022-10-18T21:38:18.837Z,12.33
2022-10-18T21:41:22.922Z,12.51
2022-10-18T21:44:25.546Z,12.49
2022-10-18T21:47:28.362Z,12.49
2022-10-18T21:50:31.225Z,12.48
2022-10-18T21:53:34.872Z,12.45
2022-10-18T21:56:37.383Z,12.44
2022-10-18T21:59:40.182Z,12.45
2022-10-18T22:02:42.777Z,12.46
2022-10-18T22:05:45.558Z,12.52
2022-10-18T22:08:51.030Z,12.53
2022-10-18T22:11:53.930Z,12.54
2022-10-18T22:14:56.531Z,12.53
2022-10-18T22:17:59.352Z,12.63
2022-10-18T22:21:05.918Z,12.68
2022-10-18T22:24:09.753Z,12.70
2022-10-18T22:27:12.227Z,12.60
2022-10-18T22:30:15.275Z,12.74
2022-10-18T22:33:18.133Z,12.71
2022-10-18T22:36:21.431Z,12.70
2022-10-18T22:39:24.674Z,12.76
2022-10-18T22:42:27.525Z,12.78
2022-10-18T22:45:30.061Z,12.80
2022-10-18T22:48:33.339Z,12.82
2022-10-18T22:51:39.581Z,12.84
2022-10-18T22:54:42.413Z,12.89
2022-10-18T22:57:44.901Z,12.98
2022-10-18T23:00:48.649Z,12.87
2022-10-18T23:03:55.743Z,13.15
2022-10-18T23:06:58.727Z,13.21
2022-10-18T23:10:01.283Z,13.26
2022-10-18T23:13:05.138Z,13.32
2022-10-18T23:16:08.165Z,13.34
2022-10-18T23:19:15.466Z,13.30
2022-10-18T23:22:21.223Z,13.46
2022-10-18T23:25:24.029Z,13.51
2022-10-18T23:28:26.661Z,13.54
2022-10-18T23:31:32.065Z,13.57
2022-10-18T23:34:34.617Z,13.56
2022-10-18T23:37:37.673Z,13.58
2022-10-18T23:40:42.054Z,13.58
2022-10-18T23:43:47.335Z,13.52
2022-10-18T23:46:49.837Z,13.54
2022-10-18T23:49:55.567Z,13.49
2022-10-18T23:52:57.959Z,13.47
2022-10-18T23:56:03.212Z,13.44
2022-10-18T23:59:05.709Z,13.42
